Time;durP1;ratioP1;P1;durP2;ratioP2;P2;SDS_P1;SDS_P2;PMS_P1;PMS_P2;Temp;Humidity;BMP_temperature;BMP_pressure;BME280_temperature;BME280_humidity;BME280_pressure;Samples;Min_cycle;Max_cycle;Signal;HPM_P1;HPM_P2
2021/01/30 00:01:46;;;;;;;67.43;31.23;;;;;;;5.32;92.60;93324.94;5022417;28;20444;-78
2021/01/30 00:04:13;;;;;;;66.00;32.50;;;;;;;5.32;92.64;93332.72;5073306;28;20451;-79
2021/01/30 00:06:46;;;;;;;60.10;31.50;;;;;;;5.33;92.99;93323.16;5073866;28;20773;-78
2021/01/30 00:09:13;;;;;;;65.97;32.10;;;;;;;5.35;93.17;93329.84;5072739;28;20432;-78
2021/01/30 00:11:39;;;;;;;55.53;29.13;;;;;;;5.37;93.80;93322.72;5073510;28;20448;-78
2021/01/30 00:14:05;;;;;;;64.00;31.17;;;;;;;5.39;93.54;93318.22;5073188;28;20437;-78
2021/01/30 00:16:32;;;;;;;63.53;35.17;;;;;;;5.41;92.84;93318.91;5073570;28;20437;-78
2021/01/30 00:18:59;;;;;;;55.60;33.70;;;;;;;5.43;93.55;93318.75;5072873;28;20486;-79
2021/01/30 00:21:26;;;;;;;74.13;37.90;;;;;;;5.48;93.09;93322.56;4988924;28;20898;-78
2021/01/30 00:23:53;;;;;;;65.07;34.47;;;;;;;5.47;92.30;93323.53;5073252;28;20448;-79
2021/01/30 00:26:19;;;;;;;63.60;34.80;;;;;;;5.52;93.20;93323.16;5073244;28;20541;-79
2021/01/30 00:28:45;;;;;;;57.20;34.40;;;;;;;5.52;93.76;93317.94;5073222;28;20467;-78
2021/01/30 00:31:12;;;;;;;54.90;32.23;;;;;;;5.52;93.56;93310.16;5072761;28;20451;-79
2021/01/30 00:33:39;;;;;;;58.00;34.50;;;;;;;5.53;93.52;93301.38;5072875;28;20509;-78
2021/01/30 00:36:06;;;;;;;51.13;32.50;;;;;;;5.54;93.47;93292.63;5073460;28;20502;-78
2021/01/30 00:38:32;;;;;;;55.13;33.00;;;;;;;5.51;92.33;93285.91;5021035;28;20492;-78
2021/01/30 00:40:59;;;;;;;61.50;31.10;;;;;;;5.54;92.92;93285.63;5072600;28;20455;-78
2021/01/30 00:43:25;;;;;;;60.73;33.10;;;;;;;5.53;93.09;93268.38;5073211;28;20444;-79
2021/01/30 00:45:51;;;;;;;55.10;31.50;;;;;;;5.53;92.50;93249.34;5073235;28;20517;-79
2021/01/30 00:48:18;;;;;;;59.93;34.77;;;;;;;5.50;93.24;93257.44;5073234;28;20448;-79
2021/01/30 00:50:45;;;;;;;54.20;33.70;;;;;;;5.48;93.40;93265.34;5073108;28;20543;-78
2021/01/30 00:53:12;;;;;;;47.20;27.50;;;;;;;5.48;93.26;93265.34;5072558;28;20501;-78
2021/01/30 00:55:38;;;;;;;58.10;28.03;;;;;;;5.48;93.19;93260.16;5021656;28;20440;-78
2021/01/30 00:58:05;;;;;;;57.17;31.47;;;;;;;5.48;93.04;93254.13;5075406;28;20579;-78
2021/01/30 01:00:32;;;;;;;68.60;36.70;;;;;;;5.48;93.51;93246.31;5076356;28;20755;-78
2021/01/30 01:02:58;;;;;;;73.00;38.67;;;;;;;5.46;93.18;93237.84;5076273;28;20443;-79
2021/01/30 01:05:25;;;;;;;70.13;34.07;;;;;;;5.42;92.87;93232.09;5076445;28;20439;-78
2021/01/30 01:07:52;;;;;;;58.50;31.57;;;;;;;5.39;93.40;93227.19;5076824;28;20468;-79
2021/01/30 01:10:22;;;;;;;57.57;32.43;;;;;;;5.36;94.64;93219.66;5041257;28;20497;-78
2021/01/30 01:12:49;;;;;;;52.53;30.60;;;;;;;5.35;94.72;93212.00;5076206;28;20535;-78
2021/01/30 01:15:18;;;;;;;57.87;27.53;;;;;;;5.38;94.07;93207.34;5076382;28;20463;-78
2021/01/30 01:17:45;;;;;;;45.33;27.90;;;;;;;5.30;94.78;93202.03;5076077;28;20480;-79
2021/01/30 01:20:14;;;;;;;50.07;28.83;;;;;;;5.24;94.60;93194.78;5076259;28;20455;-78
2021/01/30 01:22:41;;;;;;;48.67;29.47;;;;;;;5.25;95.27;93194.66;5076018;28;20912;-79
2021/01/30 01:25:08;;;;;;;52.77;33.00;;;;;;;5.16;96.34;93189.44;5076102;28;20497;-79
2021/01/30 01:27:36;;;;;;;65.13;37.00;;;;;;;5.04;96.13;93187.97;5076241;28;20513;-78
2021/01/30 01:30:04;;;;;;;76.27;40.00;;;;;;;5.02;96.71;93189.91;5076087;28;20488;-79
2021/01/30 01:32:31;;;;;;;84.70;46.83;;;;;;;4.91;96.61;93183.03;5076283;28;20507;-78
2021/01/30 01:34:57;;;;;;;75.00;45.20;;;;;;;4.91;96.79;93172.66;5075433;28;20796;-78
2021/01/30 01:37:23;;;;;;;77.80;48.00;;;;;;;4.82;97.98;93158.72;5075633;28;20484;-79
2021/01/30 01:39:50;;;;;;;70.93;49.57;;;;;;;4.88;97.19;93170.34;5075762;28;20478;-79
2021/01/30 01:42:20;;;;;;;72.70;46.47;;;;;;;4.91;98.05;93170.06;5075772;28;20463;-79
2021/01/30 01:44:49;;;;;;;76.63;45.97;;;;;;;4.92;98.19;93150.94;5075502;28;20455;-78
2021/01/30 01:47:20;;;;;;;63.87;42.73;;;;;;;4.89;97.57;93149.41;5075906;28;20440;-78
2021/01/30 01:49:48;;;;;;;75.03;41.93;;;;;;;4.88;97.86;93152.97;5075725;28;20800;-78
2021/01/30 01:52:23;;;;;;;62.33;41.40;;;;;;;4.92;96.82;93141.34;5075453;28;21007;-79
2021/01/30 01:54:52;;;;;;;72.43;43.23;;;;;;;4.97;97.27;93135.72;5075430;28;20444;-79
2021/01/30 01:57:19;;;;;;;78.10;42.50;;;;;;;4.98;96.62;93119.19;5075462;28;20480;-78
2021/01/30 01:59:51;;;;;;;71.27;43.00;;;;;;;5.00;97.06;93114.66;5075370;28;20440;-79
2021/01/30 02:02:18;;;;;;;69.77;40.57;;;;;;;5.03;96.77;93106.56;5075612;28;20451;-78
2021/01/30 02:04:52;;;;;;;66.97;42.63;;;;;;;5.07;96.91;93107.09;5075368;28;20962;-78
2021/01/30 02:07:18;;;;;;;73.10;43.13;;;;;;;5.09;96.71;93093.00;5023704;28;20436;-78
2021/01/30 02:09:45;;;;;;;65.10;40.67;;;;;;;5.13;96.91;93090.94;5074489;28;20497;-78
2021/01/30 02:12:14;;;;;;;66.60;42.50;;;;;;;5.14;96.38;93089.97;5075029;28;20456;-78
2021/01/30 02:14:45;;;;;;;67.13;45.07;;;;;;;5.17;95.77;93084.50;5075625;28;20458;-78
2021/01/30 02:17:22;;;;;;;67.40;44.00;;;;;;;5.17;95.25;93087.09;5075355;28;20484;-79
2021/01/30 02:20:40;;;;;;;77.60;43.57;;;;;;;5.11;95.50;93087.66;5075192;28;20443;-78
2021/01/30 02:23:44;;;;;;;67.57;41.10;;;;;;;5.14;95.37;93074.38;5075167;28;20433;-78
2021/01/30 02:26:39;;;;;;;66.27;40.17;;;;;;;5.16;95.36;93080.25;4993878;28;20452;-79
2021/01/30 02:29:25;;;;;;;67.33;38.40;;;;;;;5.12;95.05;93071.09;4993542;28;20974;-78
2021/01/30 02:32:10;;;;;;;52.83;32.03;;;;;;;5.10;94.90;93068.66;4993362;28;20804;-78
2021/01/30 02:34:54;;;;;;;53.57;33.10;;;;;;;5.10;95.30;93070.44;4993026;28;20490;-78
2021/01/30 02:37:27;;;;;;;57.63;31.50;;;;;;;5.15;96.31;93069.03;4993245;28;20801;-78
2021/01/30 02:40:01;;;;;;;54.87;31.23;;;;;;;5.16;95.42;93073.28;4992938;28;20464;-78
2021/01/30 02:42:32;;;;;;;55.30;31.23;;;;;;;5.15;95.17;93066.44;4992849;28;20443;-79
2021/01/30 02:45:02;;;;;;;59.43;32.30;;;;;;;5.16;96.17;93068.06;4992803;28;20949;-79
2021/01/30 02:47:33;;;;;;;60.40;37.33;;;;;;;5.14;96.48;93069.19;4993064;28;20436;-79
2021/01/30 02:50:12;;;;;;;61.23;35.30;;;;;;;5.19;95.67;93079.97;4993107;28;20440;-78
2021/01/30 02:52:41;;;;;;;55.60;32.77;;;;;;;5.19;95.75;93072.16;4993084;28;20483;-78
2021/01/30 02:55:12;;;;;;;52.03;33.40;;;;;;;5.22;96.01;93074.50;4992933;28;20484;-78
2021/01/30 02:57:38;;;;;;;47.23;30.13;;;;;;;5.25;95.97;93076.81;4992657;28;20555;-78
2021/01/30 03:00:10;;;;;;;45.57;30.90;;;;;;;5.27;95.17;93074.91;4976486;28;20454;-78
2021/01/30 03:02:37;;;;;;;55.20;30.57;;;;;;;5.26;95.77;93070.66;5022527;28;20448;-78
2021/01/30 03:05:07;;;;;;;44.77;27.83;;;;;;;5.27;95.46;93074.91;5074408;28;20428;-78
2021/01/30 03:07:47;;;;;;;45.83;29.80;;;;;;;5.26;95.59;93068.88;5022464;28;20444;-79
2021/01/30 03:10:19;;;;;;;45.03;27.77;;;;;;;5.28;94.85;93074.75;5074325;28;20576;-79
2021/01/30 03:12:54;;;;;;;41.80;23.90;;;;;;;5.17;95.27;93076.69;5073923;28;20974;-79
2021/01/30 03:15:27;;;;;;;34.70;19.97;;;;;;;5.05;95.46;93081.25;5055656;28;20467;-78
2021/01/30 03:17:57;;;;;;;24.33;17.90;;;;;;;5.04;96.20;93092.63;5074026;28;20484;-79
2021/01/30 03:20:24;;;;;;;28.03;17.27;;;;;;;5.04;96.75;93092.63;5073973;28;20493;-78
2021/01/30 03:22:54;;;;;;;29.43;17.53;;;;;;;5.02;97.37;93091.94;5074110;28;20880;-78
2021/01/30 03:25:22;;;;;;;31.93;18.47;;;;;;;5.04;97.29;93094.41;5073879;28;20499;-78
2021/01/30 03:27:50;;;;;;;32.30;18.00;;;;;;;5.01;97.47;93094.69;5073698;28;20456;-78
2021/01/30 03:30:18;;;;;;;30.33;18.10;;;;;;;4.89;98.23;93097.44;5073264;28;20443;-78
2021/01/30 03:32:44;;;;;;;32.97;21.07;;;;;;;4.82;98.23;93093.75;5073848;28;20431;-79
2021/01/30 03:35:13;;;;;;;29.23;19.93;;;;;;;4.77;99.07;93095.16;5073719;28;20450;-79
2021/01/30 03:37:40;;;;;;;34.27;21.27;;;;;;;4.82;99.08;93095.53;5073766;28;20502;-78
2021/01/30 03:40:09;;;;;;;29.03;18.97;;;;;;;4.81;98.92;93097.31;5074291;28;20547;-79
2021/01/30 03:42:36;;;;;;;28.90;19.27;;;;;;;4.80;100.00;93110.44;5073707;28;20924;-79
2021/01/30 03:45:04;;;;;;;33.07;21.60;;;;;;;4.80;99.88;93106.06;5073461;28;20436;-78
2021/01/30 03:47:31;;;;;;;39.17;26.07;;;;;;;4.84;99.80;93104.00;5073472;28;20787;-79
2021/01/30 03:49:57;;;;;;;50.97;28.97;;;;;;;4.85;98.92;93116.88;5074078;28;20432;-79
2021/01/30 03:52:23;;;;;;;43.90;28.20;;;;;;;4.86;99.57;93115.91;5073449;28;20467;-78
2021/01/30 03:54:50;;;;;;;40.43;26.20;;;;;;;4.91;99.06;93116.28;5073478;28;20792;-79
2021/01/30 03:57:17;;;;;;;45.07;28.27;;;;;;;4.87;98.36;93119.31;5073463;28;20480;-78
2021/01/30 03:59:43;;;;;;;39.83;24.70;;;;;;;4.82;97.80;93122.34;5073091;28;20443;-79
2021/01/30 04:02:09;;;;;;;49.60;30.30;;;;;;;4.77;97.33;93132.34;5073206;28;20440;-78
2021/01/30 04:04:36;;;;;;;46.53;30.30;;;;;;;4.74;97.73;93122.22;5073035;28;20839;-78
2021/01/30 04:07:02;;;;;;;48.93;31.73;;;;;;;4.74;97.69;93126.59;5072657;28;20792;-79
2021/01/30 04:09:29;;;;;;;54.77;30.70;;;;;;;4.70;97.96;93123.47;5072621;28;20449;-79
2021/01/30 04:11:55;;;;;;;49.07;31.80;;;;;;;4.72;97.57;93134.53;5073240;28;20476;-79
2021/01/30 04:14:22;;;;;;;49.77;31.97;;;;;;;4.66;97.80;93132.50;5021284;28;20444;-78
2021/01/30 04:16:49;;;;;;;51.33;32.57;;;;;;;4.59;97.56;93131.38;5072523;28;20440;-78
2021/01/30 04:19:15;;;;;;;53.63;32.90;;;;;;;4.57;97.15;93126.31;5072498;28;20447;-79
2021/01/30 04:21:41;;;;;;;54.53;32.30;;;;;;;4.53;97.14;93113.75;5073172;28;20801;-78
2021/01/30 04:24:08;;;;;;;55.30;36.00;;;;;;;4.58;97.62;93121.94;5073364;28;20448;-78
2021/01/30 04:26:34;;;;;;;53.37;33.30;;;;;;;4.54;97.00;93123.19;5073176;28;20459;-79
2021/01/30 04:29:01;;;;;;;50.90;35.03;;;;;;;4.55;97.05;93120.44;5073386;28;20463;-78
2021/01/30 04:31:28;;;;;;;65.50;35.03;;;;;;;4.60;97.82;93118.25;5073119;28;20936;-79
2021/01/30 04:33:54;;;;;;;46.50;32.63;;;;;;;4.68;96.77;93114.16;5025547;28;20447;-79
2021/01/30 04:36:22;;;;;;;51.00;33.17;;;;;;;4.71;95.73;93117.31;5077826;28;20448;-79
2021/01/30 04:38:49;;;;;;;51.53;31.20;;;;;;;4.74;96.18;93118.81;5077134;28;20498;-78
2021/01/30 04:41:28;;;;;;;48.07;30.73;;;;;;;4.74;95.12;93124.81;5034819;28;20445;-78
2021/01/30 04:44:00;;;;;;;53.50;32.77;;;;;;;4.77;95.13;93129.72;5034928;28;20453;-78
2021/01/30 04:46:41;;;;;;;61.80;34.50;;;;;;;4.80;95.14;93124.25;5034725;28;20442;-79
2021/01/30 04:49:16;;;;;;;59.83;33.27;;;;;;;4.81;94.16;93123.31;5003719;28;20806;-79
2021/01/30 04:51:54;;;;;;;57.30;36.00;;;;;;;4.85;93.98;93122.06;5034468;28;20521;-78
2021/01/30 04:54:38;;;;;;;67.00;35.47;;;;;;;4.89;94.03;93125.19;5002154;28;20854;-78
2021/01/30 04:57:43;;;;;;;49.73;32.10;;;;;;;4.89;94.11;93123.41;5034077;28;20450;-78
2021/01/30 05:00:44;;;;;;;51.03;31.27;;;;;;;4.86;93.67;93126.28;4892541;29;20480;-78
2021/01/30 05:03:45;;;;;;;44.00;28.67;;;;;;;4.85;93.70;93129.03;4843574;29;20462;-78
2021/01/30 05:06:15;;;;;;;45.77;28.10;;;;;;;4.90;93.90;93135.44;4843626;29;20538;-78
2021/01/30 05:08:46;;;;;;;47.50;29.50;;;;;;;4.89;93.38;93139.00;4843458;29;20463;-79
2021/01/30 05:11:17;;;;;;;40.63;26.10;;;;;;;4.88;93.68;93134.78;4843228;29;20851;-78
2021/01/30 05:13:51;;;;;;;39.00;27.17;;;;;;;4.89;94.46;93133.81;4843363;29;20937;-79
2021/01/30 05:16:22;;;;;;;41.07;28.80;;;;;;;4.90;93.88;93139.81;4843418;29;20454;-79
2021/01/30 05:18:54;;;;;;;38.60;26.67;;;;;;;4.89;93.75;93139.00;4843376;29;20494;-78
2021/01/30 05:21:28;;;;;;;51.30;30.50;;;;;;;4.90;94.59;93142.41;4843299;29;21062;-78
2021/01/30 05:23:55;;;;;;;41.60;28.20;;;;;;;4.89;94.89;93154.59;4843308;29;20449;-79
2021/01/30 05:26:28;;;;;;;37.27;26.83;;;;;;;4.81;94.22;93151.06;4828187;29;20470;-79
2021/01/30 05:29:05;;;;;;;34.73;26.90;;;;;;;4.80;94.73;93155.44;4842749;29;20451;-79
2021/01/30 05:31:40;;;;;;;48.83;29.90;;;;;;;4.73;94.73;93159.56;4842921;29;20450;-79
2021/01/30 05:34:12;;;;;;;56.73;33.53;;;;;;;4.70;95.13;93166.81;4843097;29;20463;-79
2021/01/30 05:36:45;;;;;;;50.27;35.37;;;;;;;4.65;95.17;93177.63;4891991;29;20453;-79
2021/01/30 05:39:36;;;;;;;51.07;32.40;;;;;;;4.61;96.23;93171.84;4979224;28;20834;-78
2021/01/30 05:42:11;;;;;;;53.73;34.17;;;;;;;4.54;96.07;93175.13;5055502;28;20971;-79
2021/01/30 05:44:46;;;;;;;53.53;33.00;;;;;;;4.40;95.63;93181.56;5054151;28;20980;-79
2021/01/30 05:47:16;;;;;;;56.10;33.27;;;;;;;4.42;96.54;93191.81;5020400;28;20437;-79
2021/01/30 05:49:56;;;;;;;61.70;38.10;;;;;;;4.40;96.41;93193.72;5056044;28;20905;-79
2021/01/30 05:52:27;;;;;;;61.97;37.10;;;;;;;4.37;97.18;93189.63;5055744;28;20487;-78
2021/01/30 05:54:54;;;;;;;63.90;38.17;;;;;;;4.35;96.92;93191.53;5055640;28;20916;-79
2021/01/30 05:57:20;;;;;;;68.83;38.90;;;;;;;4.39;97.66;93197.28;5055307;28;20507;-79
2021/01/30 05:59:49;;;;;;;55.20;34.97;;;;;;;4.44;97.57;93198.50;5055793;28;20467;-82
2021/01/30 06:02:18;;;;;;;49.27;33.43;;;;;;;4.44;96.96;93200.28;5055660;28;20449;-81
2021/01/30 06:04:45;;;;;;;50.57;34.67;;;;;;;4.48;96.18;93204.25;5055317;28;20425;-80
2021/01/30 06:07:29;;;;;;;53.60;35.13;;;;;;;4.55;96.41;93207.94;5055260;28;20950;-81
2021/01/30 06:09:56;;;;;;;50.70;31.20;;;;;;;4.52;95.17;93211.63;5055273;28;20449;-82
2021/01/30 06:12:25;;;;;;;39.73;30.77;;;;;;;4.50;96.04;93220.50;5055494;28;20533;-85
2021/01/30 06:14:54;;;;;;;35.13;23.50;;;;;;;9.07;100.00;93220.41;5055393;28;20457;-86
2021/01/30 06:17:31;;;;;;;32.10;23.20;;;;;;;10.84;91.71;93238.56;5037512;28;20484;-85
2021/01/30 06:20:15;;;;;;;46.70;29.07;;;;;;;11.51;73.50;93234.50;5055703;28;20454;-82
2021/01/30 06:22:41;;;;;;;45.17;29.87;;;;;;;10.66;67.31;93238.00;5055278;28;20445;-84
2021/01/30 06:25:25;;;;;;;49.43;33.30;;;;;;;9.72;68.07;93248.38;5055348;28;20438;-83
2021/01/30 06:27:55;;;;;;;49.00;32.37;;;;;;;8.99;69.34;93257.84;5055271;28;20438;-84
2021/01/30 06:40:30;;;;;;;52.27;33.47;;;;;;;6.12;83.14;93280.28;5051209;28;20468;-78
2021/01/30 06:43:05;;;;;;;35.70;25.37;;;;;;;5.73;85.05;93274.34;5054851;28;20503;-78
2021/01/30 06:45:36;;;;;;;24.97;19.30;;;;;;;5.42;87.27;93280.69;5055060;28;20447;-78
2021/01/30 06:48:08;;;;;;;21.83;18.27;;;;;;;5.13;89.58;93285.91;5003487;28;20456;-78
2021/01/30 06:50:37;;;;;;;27.33;19.60;;;;;;;5.01;91.13;93287.84;5054594;28;20441;-78
2021/01/30 06:53:19;;;;;;;35.23;23.03;;;;;;;4.84;92.17;93291.09;5054118;28;20937;-80
2021/01/30 06:55:46;;;;;;;32.20;22.93;;;;;;;4.69;93.79;93282.06;5054169;28;20441;-82
2021/01/30 06:58:23;;;;;;;26.10;16.60;;;;;;;4.71;94.51;93288.78;5054372;28;20493;-80
2021/01/30 07:00:51;;;;;;;21.23;15.97;;;;;;;4.64;94.40;93285.91;5054450;28;20527;-81
2021/01/30 07:03:26;;;;;;;37.33;20.20;;;;;;;4.54;95.23;93299.81;5054456;28;20442;-80
2021/01/30 07:06:09;;;;;;;21.13;13.00;;;;;;;4.44;96.50;93304.97;5054045;28;20931;-81
2021/01/30 07:08:56;;;;;;;24.03;15.47;;;;;;;4.39;97.10;93308.94;5054130;28;20438;-80
2021/01/30 07:11:45;;;;;;;19.80;14.70;;;;;;;4.38;97.22;93309.88;5036747;28;20448;-81
2021/01/30 07:14:26;;;;;;;25.53;14.73;;;;;;;4.39;97.66;93308.94;5054124;28;20434;-80
2021/01/30 07:16:58;;;;;;;14.17;10.13;;;;;;;4.33;97.46;93302.47;5054115;28;20442;-80
2021/01/30 07:19:36;;;;;;;20.37;11.67;;;;;;;4.42;98.61;93312.09;5036081;28;20473;-80
2021/01/30 07:28:56;;;;;;;20.50;15.50;;;;;;;4.34;98.46;93336.13;5053854;28;20397;-80
2021/01/30 07:31:29;;;;;;;15.20;12.27;;;;;;;4.32;99.52;93338.00;5054034;28;20429;-81
2021/01/30 07:34:00;;;;;;;9.73;8.30;;;;;;;4.32;99.16;93335.41;5053608;28;20421;-80
2021/01/30 07:36:32;;;;;;;8.63;7.03;;;;;;;4.38;100.00;93335.84;5054058;28;20441;-81
2021/01/30 07:39:05;;;;;;;7.73;7.03;;;;;;;4.40;100.00;93341.75;5053846;28;20595;-81
2021/01/30 07:41:42;;;;;;;8.43;6.03;;;;;;;4.35;100.00;93344.72;5054100;28;20422;-80
2021/01/30 07:44:14;;;;;;;7.87;5.80;;;;;;;4.30;100.00;93354.66;5053529;28;20448;-80
2021/01/30 07:46:44;;;;;;;8.67;7.00;;;;;;;4.33;100.00;93354.41;5018796;28;20433;-80
2021/01/30 07:49:17;;;;;;;6.43;5.73;;;;;;;4.32;100.00;93352.75;5053273;28;20440;-80
2021/01/30 07:52:02;;;;;;;6.23;5.10;;;;;;;4.29;100.00;93356.44;5053520;28;20809;-79
2021/01/30 07:54:29;;;;;;;11.40;6.20;;;;;;;4.19;100.00;93353.00;5053538;28;20445;-80
2021/01/30 07:57:14;;;;;;;6.37;5.87;;;;;;;4.22;100.00;93357.09;5054020;28;20831;-80
2021/01/30 07:59:49;;;;;;;8.67;5.03;;;;;;;4.17;100.00;93360.09;5002785;28;20448;-82
2021/01/30 08:02:44;;;;;;;12.90;7.20;;;;;;;4.22;100.00;93363.09;5054144;28;20436;-80
2021/01/30 08:05:32;;;;;;;7.60;5.60;;;;;;;4.28;100.00;93367.78;4992083;28;20498;-80
2021/01/30 08:08:10;;;;;;;21.67;11.10;;;;;;;4.26;100.00;93374.06;4991088;28;21021;-80
2021/01/30 08:10:49;;;;;;;11.20;6.80;;;;;;;4.31;100.00;93375.31;4943492;28;20451;-80
2021/01/30 08:13:27;;;;;;;16.43;8.53;;;;;;;4.32;100.00;93379.53;4991722;28;20432;-80
2021/01/30 08:16:05;;;;;;;22.97;12.10;;;;;;;4.37;100.00;93386.16;4993462;28;20487;-79
2021/01/30 08:18:37;;;;;;;10.73;5.77;;;;;;;4.41;100.00;93387.53;5011368;28;20482;-79
2021/01/30 08:21:12;;;;;;;4.47;3.40;;;;;;;4.53;100.00;93386.47;5011547;28;20512;-80
2021/01/30 08:23:48;;;;;;;4.30;3.13;;;;;;;4.56;100.00;93391.41;5011809;28;20450;-80
2021/01/30 08:26:22;;;;;;;6.53;3.00;;;;;;;4.53;100.00;93397.69;4963096;28;20443;-80
2021/01/30 08:29:07;;;;;;;7.60;5.40;;;;;;;4.61;100.00;93399.63;5011291;28;20930;-79
2021/01/30 08:31:38;;;;;;;14.23;6.00;;;;;;;4.62;100.00;93403.84;5011645;28;20439;-81
2021/01/30 08:34:08;;;;;;;10.40;6.23;;;;;;;4.61;100.00;93410.00;5011595;28;20445;-80
2021/01/30 08:36:38;;;;;;;8.93;6.30;;;;;;;4.58;100.00;93416.28;5011585;28;20446;-79
2021/01/30 08:39:24;;;;;;;8.03;5.60;;;;;;;4.58;100.00;93420.66;5010835;28;20502;-79
2021/01/30 08:41:54;;;;;;;5.10;4.60;;;;;;;4.54;100.00;93421.88;5046000;28;20439;-78
2021/01/30 08:44:46;;;;;;;5.33;4.30;;;;;;;4.57;100.00;93439.78;5093615;28;20430;-82
2021/01/30 08:47:26;;;;;;;10.47;4.70;;;;;;;4.67;100.00;93438.09;5093980;28;20459;-80
2021/01/30 08:50:12;;;;;;;7.80;5.77;;;;;;;4.73;100.00;93429.75;5093033;28;20430;-79
2021/01/30 08:52:44;;;;;;;4.30;3.90;;;;;;;4.71;100.00;93431.66;5092317;28;20443;-80
2021/01/30 08:55:51;;;;;;;4.30;3.90;;;;;;;4.85;100.00;93438.28;5093720;28;20432;-80
2021/01/30 08:58:46;;;;;;;4.87;3.23;;;;;;;4.88;100.00;93451.81;5030675;28;20466;-81
2021/01/30 09:01:46;;;;;;;4.53;4.13;;;;;;;4.94;100.00;93453.09;5030922;28;20465;-78
2021/01/30 09:04:49;;;;;;;4.13;3.83;;;;;;;5.01;100.00;93453.38;5030445;28;20434;-81
2021/01/30 09:07:45;;;;;;;3.40;3.00;;;;;;;5.13;100.00;93460.09;5030750;28;20544;-79
2021/01/30 09:10:26;;;;;;;4.00;3.60;;;;;;;5.17;100.00;93469.28;5011178;28;20443;-80
2021/01/30 09:12:55;;;;;;;5.73;5.00;;;;;;;5.18;100.00;93455.31;5010742;28;20482;-80
2021/01/30 09:15:55;;;;;;;6.00;5.07;;;;;;;5.25;99.50;93459.06;5010747;28;20443;-79
2021/01/30 09:18:32;;;;;;;7.90;5.10;;;;;;;5.23;99.23;93463.56;5012001;28;20565;-78
2021/01/30 09:21:06;;;;;;;6.77;4.60;;;;;;;5.24;99.67;93453.03;4981937;28;20961;-79
2021/01/30 09:23:45;;;;;;;6.73;5.20;;;;;;;5.36;99.89;93458.94;5014119;28;20529;-80
2021/01/30 09:26:21;;;;;;;5.77;5.03;;;;;;;5.37;99.41;93460.59;5014173;28;20534;-81
2021/01/30 09:28:57;;;;;;;9.10;5.87;;;;;;;5.38;99.34;93466.59;5014053;28;20427;-83
2021/01/30 09:31:24;;;;;;;5.37;4.63;;;;;;;5.42;98.60;93473.19;5024121;28;20436;-80
2021/01/30 09:34:02;;;;;;;6.60;5.53;;;;;;;5.42;98.64;93475.78;5076637;28;20432;-80
2021/01/30 09:36:32;;;;;;;9.63;5.20;;;;;;;5.40;99.72;93478.53;5075605;28;20554;-82
2021/01/30 09:39:00;;;;;;;7.17;6.43;;;;;;;5.52;99.82;93487.03;5076390;28;20496;-80
2021/01/30 09:41:29;;;;;;;7.67;5.13;;;;;;;5.52;99.16;93487.03;5075843;28;20494;-81
2021/01/30 09:44:07;;;;;;;5.70;5.20;;;;;;;5.63;99.45;93486.91;5075751;28;20440;-80
2021/01/30 09:46:37;;;;;;;4.90;4.40;;;;;;;5.65;98.35;93482.41;5075411;28;20992;-81
2021/01/30 09:49:08;;;;;;;7.43;6.63;;;;;;;5.67;98.98;93482.25;5008252;28;20467;-80
2021/01/30 09:51:39;;;;;;;10.87;6.90;;;;;;;5.72;98.90;93475.69;5075848;28;20507;-80
2021/01/30 09:54:07;;;;;;;9.63;6.77;;;;;;;5.88;98.72;93467.34;5075350;28;20966;-81
2021/01/30 09:56:36;;;;;;;7.40;6.57;;;;;;;5.98;97.71;93462.97;5075309;28;20424;-79
2021/01/30 10:05:46;;;;;;;12.00;8.57;;;;;;;6.25;96.90;93462.28;5074331;28;20482;-79
2021/01/30 10:08:22;;;;;;;14.27;10.43;;;;;;;6.37;96.41;93462.97;5088697;28;20447;-79
2021/01/30 10:10:49;;;;;;;16.20;10.20;;;;;;;6.53;96.74;93456.19;5095615;28;20457;-80
2021/01/30 10:13:18;;;;;;;9.50;8.00;;;;;;;6.62;95.74;93453.69;5095596;28;20427;-80
2021/01/30 10:15:53;;;;;;;9.50;6.03;;;;;;;6.79;93.73;93451.19;5094590;28;20790;-79
2021/01/30 10:18:22;;;;;;;12.83;8.77;;;;;;;7.02;92.43;93458.63;5067466;28;20507;-78
2021/01/30 10:20:50;;;;;;;11.97;10.73;;;;;;;7.14;92.41;93457.47;5055367;28;20436;-78
2021/01/30 10:23:32;;;;;;;12.23;8.57;;;;;;;7.28;90.67;93448.34;5055158;28;20434;-78
2021/01/30 10:26:12;;;;;;;11.97;9.43;;;;;;;7.22;89.74;93462.78;5054642;28;20540;-77
2021/01/30 10:28:47;;;;;;;12.27;10.03;;;;;;;7.06;90.24;93465.22;5055369;28;20460;-76
2021/01/30 10:31:16;;;;;;;13.47;9.43;;;;;;;7.10;89.77;93466.56;5021100;28;20440;-78
2021/01/30 10:33:49;;;;;;;10.20;8.53;;;;;;;7.45;93.81;93469.25;5055418;28;20777;-79
2021/01/30 10:36:17;;;;;;;13.80;9.13;;;;;;;7.24;90.23;93466.09;5021001;28;20543;-78
2021/01/30 10:38:43;;;;;;;15.30;7.47;;;;;;;7.13;89.46;93461.88;5054825;28;20481;-78
2021/01/30 10:41:16;;;;;;;12.00;8.60;;;;;;;7.11;90.19;93465.59;5054952;28;20479;-78
2021/01/30 10:43:44;;;;;;;13.23;8.43;;;;;;;6.98;90.09;93467.72;5019993;28;20433;-76
2021/01/30 10:46:18;;;;;;;8.97;6.97;;;;;;;6.90;90.22;93467.59;5054517;28;20433;-78
2021/01/30 10:48:45;;;;;;;8.00;7.07;;;;;;;6.82;91.41;93468.31;5054220;28;20828;-78
2021/01/30 10:51:20;;;;;;;11.53;8.43;;;;;;;6.84;91.79;93469.81;5054905;28;20457;-78
2021/01/30 10:53:46;;;;;;;15.47;10.53;;;;;;;7.03;92.00;93470.72;5054153;28;20433;-78
2021/01/30 10:56:21;;;;;;;16.03;10.50;;;;;;;7.15;92.17;93474.75;5054097;28;20532;-78
2021/01/30 10:58:48;;;;;;;14.77;9.17;;;;;;;7.23;90.99;93474.88;5002913;28;20477;-78
2021/01/30 11:01:29;;;;;;;12.00;9.40;;;;;;;7.32;90.53;93481.00;5054290;28;20791;-78
2021/01/30 11:03:57;;;;;;;12.33;9.50;;;;;;;7.35;90.09;93476.31;5053929;28;20437;-78
2021/01/30 11:06:30;;;;;;;11.77;8.43;;;;;;;7.43;89.22;93481.63;5019568;28;20440;-78
2021/01/30 11:08:58;;;;;;;13.13;9.80;;;;;;;7.38;89.38;93481.25;5054561;28;20510;-78
2021/01/30 11:11:30;;;;;;;12.13;10.03;;;;;;;7.45;89.92;93484.91;5054321;28;20479;-78
2021/01/30 11:13:58;;;;;;;18.00;8.47;;;;;;;7.50;89.51;93488.88;5053918;28;20925;-78
2021/01/30 11:16:36;;;;;;;8.83;7.23;;;;;;;7.45;88.97;93477.09;5054262;28;20434;-78
2021/01/30 11:19:17;;;;;;;10.37;8.13;;;;;;;7.53;89.06;93478.97;5053896;28;20591;-80
2021/01/30 11:21:44;;;;;;;8.83;6.33;;;;;;;7.45;88.40;93479.69;5054557;28;20483;-79
2021/01/30 11:24:31;;;;;;;8.50;7.67;;;;;;;7.44;88.67;93477.22;5002966;28;20815;-78
2021/01/30 11:26:59;;;;;;;9.10;6.53;;;;;;;7.47;88.56;93476.94;5054058;28;20438;-79
2021/01/30 11:29:38;;;;;;;11.68;7.80;;;;;;;7.53;87.98;93465.94;5052906;28;20439;-79
2021/01/30 11:32:08;;;;;;;13.10;10.30;;;;;;;9.64;100.00;93484.91;5053334;28;20443;-81
2021/01/30 11:34:34;;;;;;;8.20;7.20;;;;;;;9.76;84.94;93501.97;5053484;28;20653;-79
2021/01/30 11:37:01;;;;;;;10.63;9.03;;;;;;;9.32;79.69;93493.47;5053084;28;20449;-78
2021/01/30 11:39:34;;;;;;;10.60;8.23;;;;;;;8.78;80.96;93494.63;5052934;28;20505;-79
2021/01/30 11:42:02;;;;;;;8.77;7.80;;;;;;;8.43;82.84;93505.97;5001636;28;20438;-78
2021/01/30 11:44:29;;;;;;;9.83;8.37;;;;;;;8.29;84.56;93500.28;5052861;28;20458;-79
2021/01/30 11:46:55;;;;;;;9.77;7.50;;;;;;;8.14;85.31;93500.97;5053179;28;20936;-76
2021/01/30 11:49:22;;;;;;;9.50;7.37;;;;;;;8.00;84.97;93503.13;5053455;28;20922;-78
2021/01/30 11:51:50;;;;;;;8.17;6.93;;;;;;;7.87;85.29;93494.84;5035243;28;20447;-78
2021/01/30 11:54:17;;;;;;;10.33;8.17;;;;;;;7.80;85.92;93498.16;5053244;28;20937;-78
2021/01/30 11:56:44;;;;;;;14.17;8.20;;;;;;;7.83;86.69;93508.34;5053402;28;20480;-78
2021/01/30 11:59:12;;;;;;;17.03;9.37;;;;;;;7.80;86.08;93511.22;5018317;28;20484;-79
2021/01/30 12:01:39;;;;;;;15.20;8.90;;;;;;;7.72;86.19;93511.97;5018380;28;20489;-81
2021/01/30 12:04:06;;;;;;;10.20;8.13;;;;;;;7.68;86.42;93518.44;5053036;28;20467;-78
2021/01/30 12:06:32;;;;;;;12.50;8.63;;;;;;;7.76;86.92;93516.75;5053754;28;20434;-78
2021/01/30 12:08:58;;;;;;;15.43;9.43;;;;;;;7.86;86.38;93524.53;5053397;28;20441;-79
2021/01/30 12:11:25;;;;;;;15.60;8.50;;;;;;;7.87;85.67;93509.69;5053209;28;20430;-78
2021/01/30 12:13:51;;;;;;;9.10;7.40;;;;;;;7.84;85.97;93529.09;5002373;28;20461;-82
2021/01/30 12:16:23;;;;;;;18.07;10.80;;;;;;;7.83;85.44;93526.63;5052858;28;20442;-83
2021/01/30 12:18:49;;;;;;;13.67;9.90;;;;;;;7.90;85.47;93536.31;5053462;28;20473;-80